createdAt,value
2016-03-17T00:00:32.293Z,2.5
2016-03-17T00:01:32.281Z,2.42
2016-03-17T00:02:32.283Z,2.38
2016-03-17T00:03:32.333Z,2.32
2016-03-17T00:04:32.320Z,2.42
2016-03-17T00:05:32.322Z,2.33
2016-03-17T00:06:32.325Z,2.28
2016-03-17T00:07:32.327Z,2.33
2016-03-17T00:08:32.361Z,2.38
2016-03-17T00:09:32.349Z,2.42
2016-03-17T00:10:32.366Z,2.43
2016-03-17T00:11:32.369Z,2.49
2016-03-17T00:12:32.372Z,2.44
2016-03-17T00:13:32.578Z,2.49
2016-03-17T00:14:32.393Z,2.42
2016-03-17T00:15:32.396Z,2.42
2016-03-17T00:16:32.399Z,2.28
2016-03-17T00:17:32.416Z,2.31
2016-03-17T00:18:32.436Z,2.28
2016-03-17T00:19:32.422Z,2.25
2016-03-17T00:20:32.457Z,2.25
2016-03-17T00:21:32.522Z,2.29
2016-03-17T00:22:32.462Z,2.25
2016-03-17T00:23:32.465Z,2.25
2016-03-17T00:24:32.468Z,2.15
2016-03-17T00:25:32.485Z,2.24
2016-03-17T00:26:32.487Z,2.31
2016-03-17T00:27:32.506Z,2.29
2016-03-17T00:28:32.556Z,2.22
2016-03-17T00:29:32.496Z,2.24
2016-03-17T00:30:32.546Z,2.2
2016-03-17T00:31:32.533Z,2.26
2016-03-17T00:32:32.551Z,2.17
2016-03-17T00:33:32.553Z,2.24
2016-03-17T00:34:32.587Z,2.2
2016-03-17T00:35:32.575Z,2.22
2016-03-17T00:36:32.578Z,2.22
2016-03-17T00:37:32.581Z,2.18
2016-03-17T00:38:32.567Z,2.17
2016-03-17T00:39:32.586Z,2.07
2016-03-17T00:40:32.603Z,2.11
2016-03-17T00:41:32.606Z,2.11
2016-03-17T00:42:32.624Z,2.07
2016-03-17T00:43:32.611Z,2.2
2016-03-17T00:44:32.779Z,2.11
2016-03-17T00:45:32.641Z,2.1
2016-03-17T00:46:32.644Z,2.06
2016-03-17T00:47:32.647Z,2.1
2016-03-17T00:48:32.665Z,2.11
2016-03-17T00:49:32.668Z,2.08
2016-03-17T00:50:32.670Z,2.04
2016-03-17T00:51:32.689Z,2.06
2016-03-17T00:52:32.692Z,2.04
2016-03-17T00:53:32.710Z,2.08
2016-03-17T00:54:32.697Z,2.1
2016-03-17T00:55:32.731Z,2.02
2016-03-17T00:56:32.719Z,2.14
2016-03-17T00:57:32.721Z,2.1
2016-03-17T00:58:32.724Z,2.13
2016-03-17T00:59:32.742Z,2.15
2016-03-17T01:00:32.744Z,2.1
2016-03-17T01:01:32.779Z,2.04
2016-03-17T01:02:32.782Z,1.95
2016-03-17T01:03:32.784Z,1.92
2016-03-17T01:04:32.787Z,1.91
2016-03-17T01:05:32.805Z,1.89
2016-03-17T01:06:32.807Z,1.8
2016-03-17T01:07:32.805Z,1.85
2016-03-17T01:08:32.840Z,1.78
2016-03-17T01:09:32.842Z,1.88
2016-03-17T01:10:32.829Z,1.94
2016-03-17T01:11:32.848Z,1.89
2016-03-17T01:12:32.835Z,1.88
2016-03-17T01:13:32.837Z,2.04
2016-03-17T01:14:32.856Z,1.99
2016-03-17T01:15:32.904Z,1.99
2016-03-17T01:16:32.893Z,2
2016-03-17T01:17:32.879Z,1.94
2016-03-17T01:18:32.898Z,1.95
2016-03-17T01:19:32.901Z,1.91
2016-03-17T01:20:32.918Z,1.87
2016-03-17T01:21:32.906Z,1.88
2016-03-17T01:22:32.923Z,1.73
2016-03-17T01:23:32.958Z,1.81
2016-03-17T01:24:32.929Z,1.78
2016-03-17T01:25:32.948Z,1.85
2016-03-17T01:26:32.950Z,1.89
2016-03-17T01:27:32.953Z,1.89
2016-03-17T01:28:32.956Z,1.92
2016-03-17T01:29:32.974Z,1.92
2016-03-17T01:30:32.992Z,1.89
2016-03-17T01:31:32.994Z,1.76
2016-03-17T01:32:32.982Z,1.87
2016-03-17T01:33:33.016Z,1.85
2016-03-17T01:34:33.000Z,1.97
2016-03-17T01:35:33.002Z,1.89
2016-03-17T01:36:33.037Z,1.91
2016-03-17T01:37:33.040Z,1.85
2016-03-17T01:38:33.027Z,1.81
2016-03-17T01:39:33.046Z,1.87
2016-03-17T01:40:33.049Z,1.76
2016-03-17T01:41:33.082Z,1.81
2016-03-17T01:42:33.069Z,1.92
2016-03-17T01:43:33.119Z,1.95
2016-03-17T01:44:33.090Z,1.8
2016-03-17T01:45:33.093Z,1.88
2016-03-17T01:46:33.111Z,1.89
2016-03-17T01:47:33.098Z,1.92
2016-03-17T01:48:33.132Z,1.84
2016-03-17T01:49:33.134Z,1.7
2016-03-17T01:50:33.168Z,1.7
2016-03-17T01:51:33.124Z,1.76
2016-03-17T01:52:33.143Z,1.66
2016-03-17T01:53:33.146Z,1.8
2016-03-17T01:54:33.164Z,1.66
2016-03-17T01:55:33.167Z,1.74
2016-03-17T01:56:33.170Z,1.73
2016-03-17T01:57:33.187Z,1.71
2016-03-17T01:58:33.190Z,1.66
2016-03-17T01:59:33.177Z,1.7
2016-03-17T02:00:33.212Z,1.68
2016-03-17T02:01:33.198Z,1.7
2016-03-17T02:02:33.233Z,1.76
2016-03-17T02:03:33.235Z,1.7
2016-03-17T02:04:33.238Z,1.76
2016-03-17T02:05:33.255Z,1.7
2016-03-17T02:06:33.258Z,1.77
2016-03-17T02:07:33.261Z,1.78
2016-03-17T02:08:33.279Z,1.73
2016-03-17T02:09:33.282Z,1.71
2016-03-17T02:10:33.285Z,1.68
2016-03-17T02:11:33.288Z,1.76
2016-03-17T02:12:33.305Z,1.7
2016-03-17T02:13:33.294Z,1.62
2016-03-17T02:14:33.311Z,1.76
2016-03-17T02:15:33.314Z,1.76
2016-03-17T02:16:33.333Z,1.76
2016-03-17T02:17:33.319Z,1.71
2016-03-17T02:18:33.354Z,1.7
2016-03-17T02:19:33.356Z,1.8
2016-03-17T02:20:33.343Z,1.78
2016-03-17T02:21:33.346Z,1.74
2016-03-17T02:22:33.364Z,1.84
2016-03-17T02:23:33.383Z,1.81
2016-03-17T02:24:33.417Z,1.88
2016-03-17T02:25:33.420Z,1.78
2016-03-17T02:26:33.407Z,1.76
2016-03-17T02:27:33.393Z,1.78
2016-03-17T02:28:33.412Z,1.78
2016-03-17T02:29:33.398Z,1.7
2016-03-17T02:30:33.433Z,1.78
2016-03-17T02:31:33.451Z,1.77
2016-03-17T02:32:33.423Z,1.8
2016-03-17T02:33:33.441Z,1.85
2016-03-17T02:34:33.459Z,1.87
2016-03-17T02:35:33.461Z,1.8
2016-03-17T02:36:33.464Z,1.73
2016-03-17T02:37:33.483Z,1.78
2016-03-17T02:38:33.501Z,1.92
2016-03-17T02:39:33.333Z,1.91
2016-03-17T02:40:33.491Z,1.77
2016-03-17T02:41:33.494Z,1.74
2016-03-17T02:42:33.511Z,1.73
2016-03-17T02:43:33.514Z,1.71
2016-03-17T02:44:33.517Z,1.77
2016-03-17T02:45:33.551Z,1.71
2016-03-17T02:46:33.538Z,1.73
2016-03-17T02:47:33.557Z,1.77
2016-03-17T02:48:33.560Z,1.71
2016-03-17T02:49:33.562Z,1.74
2016-03-17T02:50:33.580Z,1.73
2016-03-17T02:51:33.583Z,1.71
2016-03-17T02:52:33.585Z,1.71
2016-03-17T02:53:33.605Z,1.74
2016-03-17T02:54:33.591Z,1.76
2016-03-17T02:55:33.610Z,1.76
2016-03-17T02:56:33.612Z,1.7
2016-03-17T02:57:33.459Z,1.6
2016-03-17T02:58:33.633Z,1.67
2016-03-17T02:59:33.637Z,1.7
2016-03-17T03:00:32.904Z,1.67
2016-03-17T03:01:33.656Z,1.73
2016-03-17T03:02:33.690Z,1.78
2016-03-17T03:03:33.647Z,1.63
2016-03-17T03:04:33.665Z,1.63
2016-03-17T03:05:33.668Z,1.62
2016-03-17T03:06:33.701Z,1.63
2016-03-17T03:07:33.704Z,1.66
2016-03-17T03:08:33.707Z,1.63
2016-03-17T03:09:33.710Z,1.6
2016-03-17T03:10:33.711Z,1.63
2016-03-17T03:11:33.730Z,1.58
2016-03-17T03:12:33.717Z,1.42
2016-03-17T03:13:33.767Z,1.44
2016-03-17T03:14:33.613Z,1.37
2016-03-17T03:15:33.757Z,1.48
2016-03-17T03:16:33.759Z,1.48
2016-03-17T03:17:33.746Z,1.44
2016-03-17T03:18:33.780Z,1.42
2016-03-17T03:19:33.799Z,1.48
2016-03-17T03:20:33.801Z,1.34
2016-03-17T03:21:33.804Z,1.3
2016-03-17T03:22:33.807Z,1.42
2016-03-17T03:23:33.810Z,1.31
2016-03-17T03:24:33.813Z,1.32
2016-03-17T03:25:33.816Z,1.28
2016-03-17T03:26:33.834Z,1.26
2016-03-17T03:27:33.883Z,1.3
2016-03-17T03:28:33.839Z,1.26
2016-03-17T03:29:33.857Z,1.32
2016-03-17T03:30:33.876Z,1.32
2016-03-17T03:31:33.862Z,1.34
2016-03-17T03:32:33.881Z,1.32
2016-03-17T03:33:33.867Z,1.38
2016-03-17T03:34:33.901Z,1.34
2016-03-17T03:35:33.904Z,1.34
2016-03-17T03:36:33.892Z,1.28
2016-03-17T03:37:33.942Z,1.26
2016-03-17T03:38:33.916Z,1.23
2016-03-17T03:39:33.906Z,1.24
2016-03-17T03:40:33.741Z,1.37
2016-03-17T03:41:33.887Z,1.24
2016-03-17T03:42:33.893Z,1.32
2016-03-17T03:43:33.892Z,1.28
2016-03-17T03:44:33.905Z,1.3
2016-03-17T03:45:33.889Z,1.38
2016-03-17T03:46:33.918Z,1.35
2016-03-17T03:47:33.916Z,1.3
2016-03-17T03:48:33.918Z,1.3
2016-03-17T03:49:33.919Z,1.17
2016-03-17T03:50:33.936Z,1.32
2016-03-17T03:51:33.921Z,1.34
2016-03-17T03:52:33.923Z,1.28
2016-03-17T03:53:33.941Z,1.24
2016-03-17T03:54:33.974Z,1.26
2016-03-17T03:55:33.975Z,1.24
2016-03-17T03:56:33.962Z,1.24
2016-03-17T03:57:33.979Z,1.23
2016-03-17T03:58:33.966Z,1.23
2016-03-17T03:59:33.969Z,1.22
2016-03-17T04:00:33.988Z,1.19
2016-03-17T04:01:33.818Z,1.24
2016-03-17T04:02:33.993Z,1.22
2016-03-17T04:03:33.995Z,1.22
2016-03-17T04:04:34.013Z,1.22
2016-03-17T04:05:34.031Z,1.23
2016-03-17T04:06:34.034Z,1.23
2016-03-17T04:07:34.021Z,1.14
2016-03-17T04:08:34.039Z,1.23
2016-03-17T04:09:34.042Z,1.22
2016-03-17T04:10:34.045Z,1.14
2016-03-17T04:11:34.079Z,1.19
2016-03-17T04:12:34.082Z,1.2
2016-03-17T04:13:34.069Z,1.14
2016-03-17T04:14:34.087Z,1.13
2016-03-17T04:15:34.090Z,1.22
2016-03-17T04:16:34.092Z,1.1
2016-03-17T04:17:34.095Z,1.19
2016-03-17T04:18:34.130Z,1.24
2016-03-17T04:19:34.116Z,1.14
2016-03-17T04:20:34.135Z,1.23
2016-03-17T04:21:34.152Z,1.1
2016-03-17T04:22:34.124Z,1.17
2016-03-17T04:23:34.158Z,1.17
2016-03-17T04:24:34.130Z,1.2
2016-03-17T04:25:34.149Z,1.16
2016-03-17T04:26:34.166Z,1.06
2016-03-17T04:27:34.185Z,0.96
2016-03-17T04:28:34.172Z,1.02
2016-03-17T04:29:34.269Z,0.96
2016-03-17T04:30:34.193Z,1.05
2016-03-17T04:31:34.196Z,1.05
2016-03-17T04:32:34.182Z,1.14
2016-03-17T04:33:34.201Z,1.12
2016-03-17T04:34:34.218Z,1.02
2016-03-17T04:35:34.221Z,1.08
2016-03-17T04:36:34.240Z,1.1
2016-03-17T04:37:34.242Z,1.05
2016-03-17T04:38:34.229Z,1.13
2016-03-17T04:39:34.248Z,1.1
2016-03-17T04:40:34.251Z,0.99
2016-03-17T04:41:34.270Z,0.99
2016-03-17T04:42:34.288Z,1.05
2016-03-17T04:43:34.290Z,1.05
2016-03-17T04:44:34.293Z,1.06
2016-03-17T04:45:34.295Z,0.96
2016-03-17T04:46:34.298Z,1.05
2016-03-17T04:47:34.301Z,0.95
2016-03-17T04:48:34.304Z,1.04
2016-03-17T04:49:34.322Z,1.1
2016-03-17T04:50:34.341Z,1.02
2016-03-17T04:51:34.327Z,1.04
2016-03-17T04:52:34.330Z,1.17
2016-03-17T04:53:34.363Z,1.13
2016-03-17T04:54:34.366Z,1.17
2016-03-17T04:55:34.369Z,1.12
2016-03-17T04:56:34.372Z,0.99
2016-03-17T04:57:34.390Z,1.05
2016-03-17T04:58:34.394Z,1.12
2016-03-17T04:59:34.380Z,1.01
2016-03-17T05:00:34.430Z,1.14
2016-03-17T05:01:34.416Z,1.16
2016-03-17T05:02:34.419Z,1.12
2016-03-17T05:03:34.422Z,1.08
2016-03-17T05:04:34.424Z,1.06
2016-03-17T05:05:34.427Z,1.02
2016-03-17T05:06:34.446Z,1.08
2016-03-17T05:07:34.464Z,1.17
2016-03-17T05:08:34.451Z,1.05
2016-03-17T05:09:34.469Z,1.06
2016-03-17T05:10:34.472Z,1.08
2016-03-17T05:11:34.475Z,1.08
2016-03-17T05:12:34.462Z,1.08
2016-03-17T05:13:34.496Z,1.1
2016-03-17T05:14:34.515Z,1.08
2016-03-17T05:15:34.376Z,1.12
2016-03-17T05:16:34.519Z,1.1
2016-03-17T05:17:34.523Z,1.12
2016-03-17T05:18:34.509Z,1.02
2016-03-17T05:19:34.528Z,1.06
2016-03-17T05:20:34.530Z,1.08
2016-03-17T05:21:34.377Z,1.12
2016-03-17T05:22:34.552Z,1.23
2016-03-17T05:23:34.570Z,1.17
2016-03-17T05:24:34.604Z,1.14
2016-03-17T05:25:34.560Z,1.14
2016-03-17T05:26:34.594Z,1.1
2016-03-17T05:27:34.596Z,1.06
2016-03-17T05:28:34.599Z,1.12
2016-03-17T05:29:34.586Z,1.14
2016-03-17T05:30:34.604Z,1.05
2016-03-17T05:31:34.607Z,1.16
2016-03-17T05:32:34.640Z,1.14
2016-03-17T05:33:34.644Z,1.14
2016-03-17T05:34:34.630Z,1.1
2016-03-17T05:35:34.633Z,1.16
2016-03-17T05:36:34.636Z,1.17
2016-03-17T05:37:34.670Z,1.12
2016-03-17T05:38:34.673Z,1.14
2016-03-17T05:39:34.676Z,1.1
2016-03-17T05:40:34.678Z,1.23
2016-03-17T05:41:34.681Z,1.13
2016-03-17T05:42:34.684Z,1.17
2016-03-17T05:43:34.687Z,1.23
2016-03-17T05:44:34.720Z,1.23
2016-03-17T05:45:34.739Z,1.22
2016-03-17T05:46:34.694Z,1.19
2016-03-17T05:47:34.728Z,1.12
2016-03-17T05:48:34.731Z,1.23
2016-03-17T05:49:34.733Z,1.24
2016-03-17T05:50:34.752Z,1.24
2016-03-17T05:51:34.738Z,1.23
2016-03-17T05:52:34.757Z,1.22
2016-03-17T05:53:34.760Z,1.28
2016-03-17T05:54:34.763Z,1.31
2016-03-17T05:55:34.781Z,1.2
2016-03-17T05:56:34.783Z,1.31
2016-03-17T05:57:34.802Z,1.28
2016-03-17T05:58:34.788Z,1.32
2016-03-17T05:59:34.807Z,1.28
2016-03-17T06:00:34.794Z,1.31
2016-03-17T06:01:34.813Z,1.38
2016-03-17T06:02:34.831Z,1.34
2016-03-17T06:03:34.833Z,1.44
2016-03-17T06:04:34.836Z,1.31
2016-03-17T06:05:34.839Z,1.45
2016-03-17T06:06:34.858Z,1.48
2016-03-17T06:07:34.860Z,1.45
2016-03-17T06:08:34.863Z,1.48
2016-03-17T06:09:34.881Z,1.55
2016-03-17T06:10:34.868Z,1.66
2016-03-17T06:11:34.918Z,1.48
2016-03-17T06:12:34.889Z,1.53
2016-03-17T06:13:34.907Z,1.59
2016-03-17T06:14:34.909Z,1.59
2016-03-17T06:15:34.929Z,1.66
2016-03-17T06:16:34.947Z,1.62
2016-03-17T06:17:34.934Z,1.68
2016-03-17T06:18:34.765Z,1.71
2016-03-17T06:19:34.986Z,1.68
2016-03-17T06:20:34.942Z,1.76
2016-03-17T06:21:34.961Z,1.74
2016-03-17T06:22:34.963Z,1.89
2016-03-17T06:23:34.981Z,1.89
2016-03-17T06:24:34.983Z,1.84
2016-03-17T06:25:34.986Z,1.91
2016-03-17T06:26:34.988Z,1.95
2016-03-17T06:27:34.991Z,2.04
2016-03-17T06:28:35.010Z,2.1
2016-03-17T06:29:35.012Z,2.1
2016-03-17T06:30:35.016Z,2.14
2016-03-17T06:31:35.080Z,2.2
2016-03-17T06:32:35.052Z,2.06
2016-03-17T06:33:35.055Z,2.13
2016-03-17T06:34:35.058Z,2.25
2016-03-17T06:35:35.060Z,2.25
2016-03-17T06:36:34.978Z,2.22
2016-03-17T06:37:34.819Z,2.28
2016-03-17T06:38:35.095Z,2.29
2016-03-17T06:39:35.113Z,2.29
2016-03-17T06:40:35.172Z,2.31
2016-03-17T06:41:35.111Z,2.38
2016-03-17T06:42:35.114Z,2.44
2016-03-17T06:43:35.133Z,2.46
2016-03-17T06:44:35.119Z,2.56
2016-03-17T06:45:35.138Z,2.53
2016-03-17T06:46:35.188Z,2.47
2016-03-17T06:47:35.174Z,2.53
2016-03-17T06:48:35.161Z,2.47
2016-03-17T06:49:35.199Z,2.57
2016-03-17T06:50:35.186Z,2.57
2016-03-17T06:51:35.219Z,2.62
2016-03-17T06:52:35.207Z,2.71
2016-03-17T06:53:35.257Z,2.71
2016-03-17T06:54:35.227Z,2.67
2016-03-17T06:55:35.246Z,2.68
2016-03-17T06:56:35.264Z,2.85
2016-03-17T06:57:35.267Z,2.93
2016-03-17T06:58:35.285Z,3.14
2016-03-17T06:59:35.272Z,3.25
2016-03-17T07:00:35.291Z,3.47
2016-03-17T07:01:35.403Z,3.73
2016-03-17T07:02:35.326Z,3.84
2016-03-17T07:03:35.314Z,4.08
2016-03-17T07:04:35.317Z,4.02
2016-03-17T07:05:35.320Z,4.16
2016-03-17T07:06:35.337Z,4.34
2016-03-17T07:07:35.200Z,4.41
2016-03-17T07:08:35.375Z,4.37
2016-03-17T07:09:35.362Z,4.42
2016-03-17T07:10:35.381Z,4.67
2016-03-17T07:11:35.367Z,4.67
2016-03-17T07:12:35.401Z,4.73
2016-03-17T07:13:35.404Z,4.92
2016-03-17T07:14:35.453Z,4.9
2016-03-17T07:15:35.409Z,4.94
2016-03-17T07:16:35.458Z,4.93
2016-03-17T07:17:35.430Z,5.07
2016-03-17T07:18:35.449Z,5.14
2016-03-17T07:19:35.483Z,5.39
2016-03-17T07:20:35.469Z,5.65
2016-03-17T07:21:35.519Z,5.79
2016-03-17T07:22:35.505Z,6.04
2016-03-17T07:23:35.508Z,6.02
2016-03-17T07:24:35.496Z,6.07
2016-03-17T07:25:35.530Z,6.12
2016-03-17T07:26:35.549Z,6.08
2016-03-17T07:27:35.536Z,6.33
2016-03-17T07:28:35.585Z,6.42
2016-03-17T07:29:35.604Z,6.42
2016-03-17T07:30:35.606Z,6.42
2016-03-17T07:31:35.609Z,6.52
2016-03-17T07:32:35.627Z,6.56
2016-03-17T07:33:35.630Z,6.67
2016-03-17T07:34:35.632Z,6.87
2016-03-17T07:35:35.634Z,7.14
2016-03-17T07:36:35.653Z,7.29
2016-03-17T07:37:35.656Z,7.29
2016-03-17T07:38:35.690Z,7.4
2016-03-17T07:39:35.693Z,7.48
2016-03-17T07:40:35.711Z,7.7
2016-03-17T07:41:35.713Z,7.8
2016-03-17T07:42:35.731Z,7.95
2016-03-17T07:43:35.734Z,8.31
2016-03-17T07:44:35.784Z,8.69
2016-03-17T07:45:35.787Z,9.06
2016-03-17T07:46:35.805Z,9.29
2016-03-17T07:47:35.792Z,9.34
2016-03-17T07:48:35.826Z,9.47
2016-03-17T07:49:35.813Z,9.74
2016-03-17T07:50:35.878Z,9.91
2016-03-17T07:51:35.850Z,9.99
2016-03-17T07:52:35.868Z,10.25
2016-03-17T07:53:35.886Z,10.64
2016-03-17T07:54:35.888Z,10.89
2016-03-17T07:55:35.924Z,11.02
2016-03-17T07:56:35.910Z,11.05
2016-03-17T07:57:35.944Z,11.23
2016-03-17T07:58:35.963Z,11.44
2016-03-17T07:59:35.980Z,11.52
2016-03-17T08:00:35.983Z,11.59
2016-03-17T08:01:36.017Z,11.54
2016-03-17T08:02:36.020Z,11.86
2016-03-17T08:03:36.070Z,12.09
2016-03-17T08:04:36.073Z,12.22
2016-03-17T08:05:36.090Z,12.27
2016-03-17T08:06:36.098Z,12.68
2016-03-17T08:07:36.101Z,13
2016-03-17T08:08:36.134Z,13.49
2016-03-17T08:09:36.137Z,13.77
2016-03-17T08:10:36.000Z,14.08
2016-03-17T08:11:36.175Z,14.65
2016-03-17T08:12:36.224Z,14.92
2016-03-17T08:13:36.211Z,14.85
2016-03-17T08:14:36.245Z,15.25
2016-03-17T08:15:36.264Z,15.75
2016-03-17T08:16:36.266Z,16.15
2016-03-17T08:17:36.300Z,16.61
2016-03-17T08:18:36.318Z,17.05
2016-03-17T08:19:36.368Z,17.38
2016-03-17T08:20:36.370Z,17.49
2016-03-17T08:21:36.373Z,17.71
2016-03-17T08:22:36.391Z,17.83
2016-03-17T08:23:36.394Z,17.79
2016-03-17T08:24:36.443Z,17.65
2016-03-17T08:25:36.462Z,17.7
2016-03-17T08:26:36.496Z,18.1
2016-03-17T08:27:36.514Z,18.33
2016-03-17T08:28:36.517Z,18.35
2016-03-17T08:29:36.551Z,18.59
2016-03-17T08:30:36.585Z,18.52
2016-03-17T08:31:36.587Z,18.13
2016-03-17T08:32:36.621Z,17.85
2016-03-17T08:33:36.655Z,17.9
2016-03-17T08:34:36.658Z,17.46
2016-03-17T08:35:36.677Z,17.23
2016-03-17T08:36:36.711Z,17.41
2016-03-17T08:37:36.745Z,17.56
2016-03-17T08:38:36.763Z,17.68
2016-03-17T08:39:36.641Z,18.25
2016-03-17T08:40:36.799Z,18.5
2016-03-17T08:41:36.834Z,18.75
2016-03-17T08:42:36.867Z,18.9
2016-03-17T08:43:36.885Z,19.04
2016-03-17T08:44:36.748Z,18.83
2016-03-17T08:45:36.922Z,18.74
2016-03-17T08:46:36.956Z,18.98
2016-03-17T08:47:36.974Z,19.16
2016-03-17T08:48:37.008Z,19.4
2016-03-17T08:49:37.042Z,19.56
2016-03-17T08:50:37.092Z,19.74
2016-03-17T08:51:37.094Z,19.89
2016-03-17T08:52:37.113Z,19.89
2016-03-17T08:53:37.178Z,19.84
2016-03-17T08:54:37.197Z,19.76
2016-03-17T08:55:37.214Z,19.64
2016-03-17T08:56:37.217Z,19.63
2016-03-17T08:57:37.251Z,19.67
2016-03-17T08:58:37.144Z,19.33
2016-03-17T08:59:37.319Z,18.53
2016-03-17T09:00:37.338Z,18.5
2016-03-17T09:01:37.355Z,18.38
2016-03-17T09:02:37.390Z,18.37
2016-03-17T09:03:37.392Z,18.43
2016-03-17T09:04:37.427Z,18.45
2016-03-17T09:05:37.445Z,18.53
2016-03-17T09:06:37.484Z,18.58
2016-03-17T09:07:37.486Z,18.38
2016-03-17T09:08:37.537Z,18.43
2016-03-17T09:09:37.617Z,18.4
2016-03-17T09:10:37.588Z,18.43
2016-03-17T09:11:37.606Z,18.23
2016-03-17T09:12:37.640Z,18.35
2016-03-17T09:13:37.659Z,18.43
2016-03-17T09:14:37.678Z,18.45
2016-03-17T09:15:37.695Z,18.49
2016-03-17T09:16:37.729Z,18.33
2016-03-17T09:17:37.763Z,18.43
2016-03-17T09:18:37.797Z,18.4
2016-03-17T09:19:37.815Z,17.95
2016-03-17T09:20:37.833Z,17.95
2016-03-17T09:21:37.867Z,18.22
2016-03-17T09:22:37.901Z,18.43
2016-03-17T09:23:37.889Z,18.37
2016-03-17T09:24:37.907Z,17.94
2016-03-17T09:25:37.957Z,17.87
2016-03-17T09:26:37.978Z,17.82
2016-03-17T09:27:37.981Z,17.57
2016-03-17T09:28:38.000Z,17.56
2016-03-17T09:29:38.050Z,17.74
2016-03-17T09:30:38.052Z,17.9
2016-03-17T09:31:38.101Z,18.28
2016-03-17T09:32:38.120Z,18.75
2016-03-17T09:33:38.154Z,19.37
2016-03-17T09:34:38.172Z,19.55
2016-03-17T09:35:38.206Z,19.67
2016-03-17T09:36:38.209Z,20.02
2016-03-17T09:37:38.242Z,19.91
2016-03-17T09:38:38.261Z,19.15
2016-03-17T09:39:38.280Z,18.56
2016-03-17T09:40:38.330Z,18.01
2016-03-17T09:41:38.347Z,18.07
2016-03-17T09:42:38.350Z,18.1
2016-03-17T09:43:38.399Z,17.76
2016-03-17T09:44:38.402Z,17.52
2016-03-17T09:45:38.436Z,17.52
2016-03-17T09:46:38.485Z,17.95
2016-03-17T09:47:38.519Z,18.01
2016-03-17T09:48:38.507Z,18.18
2016-03-17T09:49:38.525Z,18.4
2016-03-17T09:50:38.559Z,18.44
2016-03-17T09:51:38.562Z,18.65
2016-03-17T09:52:38.596Z,18.81
2016-03-17T09:53:38.615Z,18.62
2016-03-17T09:54:38.649Z,18.49
2016-03-17T09:55:38.665Z,18.68
2016-03-17T09:56:38.700Z,18.49
2016-03-17T09:57:38.704Z,18.37
2016-03-17T09:58:38.737Z,18.53
2016-03-17T09:59:38.756Z,18.5
2016-03-17T10:00:38.820Z,18.95
2016-03-17T10:01:38.823Z,19.41
2016-03-17T10:02:38.857Z,19.45
2016-03-17T10:03:38.875Z,19.51
2016-03-17T10:04:38.894Z,19.62
2016-03-17T10:05:38.912Z,20.06
2016-03-17T10:06:38.930Z,20.29
2016-03-17T10:07:38.964Z,20.63
2016-03-17T10:08:38.983Z,20.88
2016-03-17T10:09:39.017Z,21.17
2016-03-17T10:10:39.035Z,21.37
2016-03-17T10:11:39.083Z,21.37
2016-03-17T10:12:39.087Z,21.33
2016-03-17T10:13:39.122Z,21.64
2016-03-17T10:14:39.138Z,21.79
2016-03-17T10:15:39.158Z,21.77
2016-03-17T10:16:39.207Z,21.89
2016-03-17T10:17:39.225Z,22.1
2016-03-17T10:18:39.243Z,22.07
2016-03-17T10:19:39.277Z,22.3
2016-03-17T10:20:39.280Z,22.33
2016-03-17T10:21:39.315Z,22.41
2016-03-17T10:22:39.332Z,22.32
2016-03-17T10:23:39.382Z,22.11
2016-03-17T10:24:39.415Z,21.88
2016-03-17T10:25:39.450Z,21.76
2016-03-17T10:26:39.453Z,21.14
2016-03-17T10:27:39.487Z,20.95
2016-03-17T10:28:39.505Z,20.7
2016-03-17T10:29:39.539Z,20.24
2016-03-17T10:30:39.573Z,20.18
2016-03-17T10:31:39.591Z,20.24
2016-03-17T10:32:39.641Z,19.94
2016-03-17T10:33:39.659Z,19.85
2016-03-17T10:34:39.677Z,20.03
2016-03-17T10:35:39.680Z,20
2016-03-17T10:36:39.730Z,19.99
2016-03-17T10:37:39.733Z,19.56
2016-03-17T10:38:39.767Z,19.56
2016-03-17T10:39:39.784Z,19.76
2016-03-17T10:40:39.850Z,20.25
2016-03-17T10:41:39.868Z,20.36
2016-03-17T10:42:39.855Z,20.03
2016-03-17T10:43:39.889Z,19.69
2016-03-17T10:44:39.923Z,19.84
2016-03-17T10:45:39.941Z,19.41
2016-03-17T10:46:39.960Z,19.37
2016-03-17T10:47:39.978Z,19.45
2016-03-17T10:48:40.028Z,19.49
2016-03-17T10:49:40.061Z,19.54
2016-03-17T10:50:40.080Z,19.19
2016-03-17T10:51:40.113Z,18.74
2016-03-17T10:52:40.132Z,18.81
2016-03-17T10:53:40.151Z,18.86
2016-03-17T10:54:40.185Z,18.73
2016-03-17T10:55:40.202Z,18.95
2016-03-17T10:56:40.237Z,18.93
2016-03-17T10:57:40.270Z,18.98
2016-03-17T10:58:40.290Z,18.84
2016-03-17T10:59:40.307Z,19.04
2016-03-17T11:00:40.341Z,19.37
2016-03-17T11:01:40.359Z,19.29
2016-03-17T11:02:40.362Z,19.16
2016-03-17T11:03:40.428Z,19.31
2016-03-17T11:04:40.445Z,19.45
2016-03-17T11:05:40.448Z,19.81
2016-03-17T11:06:40.467Z,20.18
2016-03-17T11:07:40.501Z,20.32
2016-03-17T11:08:40.503Z,20.44
2016-03-17T11:09:40.539Z,20.67
2016-03-17T11:10:40.574Z,20.8
2016-03-17T11:11:40.608Z,20.58
2016-03-17T11:12:40.642Z,20.36
2016-03-17T11:13:40.661Z,20.06
2016-03-17T11:14:40.663Z,20.21
2016-03-17T11:15:40.713Z,20
2016-03-17T11:16:40.731Z,19.66
2016-03-17T11:17:40.749Z,19.54
2016-03-17T11:18:40.783Z,19.52
2016-03-17T11:19:40.802Z,19.67
2016-03-17T11:20:40.804Z,19.82
2016-03-17T11:21:40.854Z,19.88
2016-03-17T11:22:40.871Z,20.1
2016-03-17T11:23:40.906Z,20.03
2016-03-17T11:24:40.940Z,20.1
2016-03-17T11:25:40.943Z,20.25
2016-03-17T11:26:40.976Z,20.22
2016-03-17T11:27:41.011Z,20.03
2016-03-17T11:28:41.013Z,19.86
2016-03-17T11:29:41.032Z,19.95
2016-03-17T11:30:41.066Z,19.99
2016-03-17T11:31:41.068Z,20
2016-03-17T11:32:41.117Z,19.89
2016-03-17T11:33:41.167Z,19.51
2016-03-17T11:34:41.170Z,19.14
2016-03-17T11:35:41.188Z,19.09
2016-03-17T11:36:41.207Z,19
2016-03-17T11:37:41.256Z,18.99
2016-03-17T11:38:41.274Z,19.44
2016-03-17T11:39:41.293Z,19.56
2016-03-17T11:40:41.296Z,19.49
2016-03-17T11:41:41.361Z,19.47
2016-03-17T11:42:41.379Z,19.48
2016-03-17T11:43:41.397Z,19.34
2016-03-17T11:44:41.384Z,19.15
2016-03-17T11:45:41.434Z,19.15
2016-03-17T11:46:41.453Z,19.26
2016-03-17T11:47:41.502Z,19.29
2016-03-17T11:48:41.505Z,19.15
2016-03-17T11:49:41.539Z,19.56
2016-03-17T11:50:41.588Z,19.91
2016-03-17T11:51:41.575Z,20.1
2016-03-17T11:52:41.609Z,20.31
2016-03-17T11:53:41.627Z,20.04
2016-03-17T11:54:41.646Z,19.86
2016-03-17T11:55:41.663Z,20.09
2016-03-17T11:56:41.697Z,20.28
2016-03-17T11:57:41.700Z,20.28
2016-03-17T11:58:41.766Z,20.34
2016-03-17T11:59:41.769Z,20.24
2016-03-17T12:00:41.791Z,19.91
2016-03-17T12:01:41.810Z,19.89
2016-03-17T12:02:41.843Z,20.24
2016-03-17T12:03:41.862Z,20.32
2016-03-17T12:04:41.881Z,20.13
2016-03-17T12:05:41.898Z,20.24
2016-03-17T12:06:41.964Z,20.37
2016-03-17T12:07:41.967Z,20.55
2016-03-17T12:08:41.970Z,20.41
2016-03-17T12:09:42.020Z,20.47
2016-03-17T12:10:42.037Z,20.29
2016-03-17T12:11:42.055Z,20.36
2016-03-17T12:12:42.089Z,20.41
2016-03-17T12:13:42.124Z,20.44
2016-03-17T12:14:42.126Z,20.43
2016-03-17T12:15:42.160Z,20.62
2016-03-17T12:16:42.178Z,20.77
2016-03-17T12:17:42.197Z,20.52
2016-03-17T12:18:42.230Z,20.26
2016-03-17T12:19:42.264Z,20.25
2016-03-17T12:20:42.283Z,19.82
2016-03-17T12:21:42.302Z,19.58
2016-03-17T12:22:42.335Z,19.54
2016-03-17T12:23:42.353Z,19.67
2016-03-17T12:24:42.356Z,20.11
2016-03-17T12:25:42.390Z,20.43
2016-03-17T12:26:42.424Z,20.32
2016-03-17T12:27:42.443Z,20.37
2016-03-17T12:28:42.476Z,20.4
2016-03-17T12:29:42.494Z,20.21
2016-03-17T12:30:42.513Z,20.06
2016-03-17T12:31:42.532Z,19.76
2016-03-17T12:32:42.565Z,19.79
2016-03-17T12:33:42.568Z,19.84
2016-03-17T12:34:42.617Z,19.88
2016-03-17T12:35:42.635Z,19.99
2016-03-17T12:36:42.670Z,19.64
2016-03-17T12:37:42.688Z,19.71
2016-03-17T12:38:42.722Z,20.16
2016-03-17T12:39:42.725Z,20.31
2016-03-17T12:40:42.743Z,20.56
2016-03-17T12:41:42.792Z,20.44
2016-03-17T12:42:42.796Z,20.4
2016-03-17T12:43:42.822Z,20.28
2016-03-17T12:44:42.845Z,20.47
2016-03-17T12:45:42.881Z,20.69
2016-03-17T12:46:42.871Z,20.55
2016-03-17T12:47:42.861Z,20.43
2016-03-17T12:48:42.889Z,20.39
2016-03-17T12:49:42.918Z,20.48
2016-03-17T12:50:42.917Z,20.67
2016-03-17T12:51:42.946Z,20.78
2016-03-17T12:52:42.960Z,20.82
2016-03-17T12:53:42.991Z,20.84
2016-03-17T12:54:43.039Z,20.82
2016-03-17T12:55:43.040Z,20.85
2016-03-17T12:56:43.042Z,20.99
2016-03-17T12:57:43.073Z,20.99
2016-03-17T12:58:43.092Z,20.63
2016-03-17T12:59:43.109Z,20.31
2016-03-17T13:00:43.157Z,20.32
2016-03-17T13:01:43.159Z,20.59
2016-03-17T13:02:43.177Z,20.82
2016-03-17T13:03:43.226Z,20.99
2016-03-17T13:04:43.244Z,21.12
2016-03-17T13:05:43.279Z,21.27
2016-03-17T13:06:43.329Z,21.29
2016-03-17T13:07:43.322Z,21.2
2016-03-17T13:08:43.356Z,21.3
2016-03-17T13:09:43.389Z,21.54
2016-03-17T13:10:43.408Z,21.46